Time;durP1;ratioP1;P1;durP2;ratioP2;P2;SDS_P1;SDS_P2;PMS_P1;PMS_P2;Temp;Humidity;BMP_temperature;BMP_pressure;BME280_temperature;BME280_humidity;BME280_pressure;Samples;Min_cycle;Max_cycle;Signal;HPM_P1;HPM_P2
2023/08/13 04:01:41;;;;;;;1.30;1.20;;;19.60;97.30;;;;;;5460934;23;20499;-66
2023/08/13 04:04:06;;;;;;;1.50;1.40;;;19.60;97.30;;;;;;4930826;29;20835;-66
2023/08/13 04:06:32;;;;;;;1.73;1.30;;;19.60;97.30;;;;;;4930574;29;20211;-66
2023/08/13 04:08:58;;;;;;;1.47;1.00;;;19.60;97.30;;;;;;4934719;29;20184;-65
2023/08/13 04:11:24;;;;;;;1.30;1.20;;;19.60;97.30;;;;;;4930983;29;20212;-66
2023/08/13 04:13:49;;;;;;;1.37;1.33;;;19.60;97.30;;;;;;4956341;23;20662;-65
2023/08/13 04:16:15;;;;;;;1.30;1.20;;;19.60;97.30;;;;;;4952462;28;20203;-65
2023/08/13 04:18:40;;;;;;;0.83;0.80;;;19.60;97.30;;;;;;4954666;28;20194;-64
2023/08/13 04:21:06;;;;;;;1.30;1.20;;;19.60;97.30;;;;;;4954292;28;20753;-64
2023/08/13 04:23:31;;;;;;;3.23;1.47;;;19.60;97.30;;;;;;4959211;28;20238;-65
2023/08/13 04:25:57;;;;;;;1.80;1.70;;;19.60;97.30;;;;;;4961059;28;20590;-65
2023/08/13 04:28:22;;;;;;;1.30;1.10;;;19.60;97.30;;;;;;4948973;28;20198;-65
2023/08/13 04:30:48;;;;;;;1.60;1.50;;;19.60;97.30;;;;;;4945522;28;20737;-64
2023/08/13 04:33:14;;;;;;;4.20;1.50;;;19.60;97.30;;;;;;4949216;28;20654;-65
2023/08/13 04:35:39;;;;;;;1.23;1.13;;;19.60;97.30;;;;;;4945546;28;20638;-65
2023/08/13 04:38:05;;;;;;;1.00;0.90;;;19.60;97.30;;;;;;4961650;28;20395;-65
2023/08/13 04:40:31;;;;;;;1.13;1.00;;;19.60;97.30;;;;;;4967015;28;20214;-65
2023/08/13 04:42:56;;;;;;;1.33;1.23;;;19.70;97.30;;;;;;4950654;28;20199;-65
2023/08/13 04:45:22;;;;;;;1.10;1.03;;;19.70;97.30;;;;;;4955386;28;20187;-65
2023/08/13 04:47:47;;;;;;;1.10;1.00;;;19.70;97.30;;;;;;4956501;28;20266;-65
2023/08/13 04:50:13;;;;;;;1.33;1.03;;;19.70;97.30;;;;;;4954156;28;20199;-64
2023/08/13 04:52:39;;;;;;;1.53;1.43;;;19.80;97.30;;;;;;4957926;28;20189;-65
2023/08/13 04:55:05;;;;;;;1.30;1.20;;;19.80;97.30;;;;;;4957744;28;20186;-65
2023/08/13 04:57:30;;;;;;;2.00;1.00;;;19.80;97.30;;;;;;4956558;28;20187;-65
2023/08/13 04:59:57;;;;;;;1.03;1.00;;;19.80;97.30;;;;;;4948783;28;20191;-65
2023/08/13 05:02:22;;;;;;;1.00;0.90;;;19.80;97.30;;;;;;4956254;28;20199;-65
2023/08/13 05:04:48;;;;;;;1.80;1.70;;;19.90;97.30;;;;;;4956059;28;20421;-65
2023/08/13 05:07:13;;;;;;;2.73;2.03;;;19.90;97.30;;;;;;4944314;28;20183;-65
2023/08/13 05:09:39;;;;;;;0.90;0.80;;;19.90;97.30;;;;;;4963524;28;20214;-65
2023/08/13 05:12:05;;;;;;;1.20;1.10;;;19.90;97.30;;;;;;4954359;28;20695;-65
2023/08/13 05:14:31;;;;;;;1.00;0.90;;;20.00;97.30;;;;;;4955411;28;20277;-65
2023/08/13 05:16:56;;;;;;;1.30;1.20;;;20.00;97.30;;;;;;4960432;28;20417;-65
2023/08/13 05:19:22;;;;;;;1.20;1.10;;;20.00;97.30;;;;;;4953243;28;20231;-65
2023/08/13 05:21:47;;;;;;;1.20;1.10;;;20.00;97.30;;;;;;4947263;28;20203;-65
2023/08/13 05:24:14;;;;;;;1.47;1.37;;;20.00;97.30;;;;;;4941961;28;20223;-65
2023/08/13 05:26:40;;;;;;;1.30;1.17;;;20.00;97.30;;;;;;4947081;28;21042;-65
2023/08/13 05:29:05;;;;;;;1.30;1.27;;;20.00;97.30;;;;;;4946867;28;20728;-65
2023/08/13 05:31:31;;;;;;;1.00;0.90;;;20.00;97.30;;;;;;4945542;28;20616;-65
2023/08/13 05:33:57;;;;;;;1.43;1.20;;;20.00;97.30;;;;;;4953558;28;20938;-65
2023/08/13 05:36:26;;;;;;;1.40;1.30;;;20.10;97.30;;;;;;4956356;28;20576;-65
2023/08/13 05:38:51;;;;;;;1.00;0.90;;;20.10;97.30;;;;;;4946797;28;20454;-64
2023/08/13 05:41:17;;;;;;;1.50;1.40;;;20.10;97.30;;;;;;4947461;28;20747;-64
2023/08/13 05:43:43;;;;;;;5.83;1.60;;;20.10;97.30;;;;;;4949532;28;20232;-65
2023/08/13 05:46:08;;;;;;;1.03;0.90;;;20.10;97.30;;;;;;4950842;28;20168;-65
2023/08/13 05:48:34;;;;;;;1.43;1.33;;;20.20;97.30;;;;;;4949588;28;20644;-65
2023/08/13 05:50:59;;;;;;;1.20;1.10;;;20.20;97.30;;;;;;4950639;28;20203;-65
2023/08/13 05:53:25;;;;;;;1.40;1.40;;;20.20;97.30;;;;;;4945091;28;20994;-65
2023/08/13 05:55:51;;;;;;;1.10;1.00;;;20.20;97.30;;;;;;4947079;28;20670;-63
2023/08/13 05:58:17;;;;;;;1.00;0.90;;;20.20;97.30;;;;;;4946373;28;20271;-65
2023/08/13 06:00:42;;;;;;;1.03;0.93;;;20.20;97.30;;;;;;4946990;28;20462;-65
2023/08/13 06:03:08;;;;;;;1.20;1.10;;;20.30;97.30;;;;;;4959548;28;20609;-65
2023/08/13 06:05:34;;;;;;;1.00;0.90;;;20.30;97.30;;;;;;4950588;28;20266;-66
2023/08/13 06:08:00;;;;;;;1.33;1.23;;;20.30;97.30;;;;;;4956294;28;20186;-65
2023/08/13 06:10:26;;;;;;;1.53;1.13;;;20.30;97.30;;;;;;4952624;28;20445;-64
2023/08/13 06:12:51;;;;;;;1.17;1.07;;;20.30;97.30;;;;;;4963263;28;20214;-65
2023/08/13 06:15:17;;;;;;;2.20;1.90;;;20.30;97.30;;;;;;4953744;28;20202;-64
2023/08/13 06:17:42;;;;;;;1.23;1.13;;;20.40;97.30;;;;;;4957627;28;20187;-66
2023/08/13 06:20:10;;;;;;;1.33;1.23;;;20.40;97.30;;;;;;4958269;28;20674;-64
2023/08/13 06:22:36;;;;;;;1.27;1.03;;;20.40;97.30;;;;;;4953315;28;20207;-65
2023/08/13 06:25:01;;;;;;;1.23;1.23;;;20.50;97.30;;;;;;4951027;29;20999;-65
2023/08/13 06:27:27;;;;;;;0.90;0.80;;;20.50;97.30;;;;;;4952684;28;20183;-65
2023/08/13 06:29:53;;;;;;;1.13;1.07;;;20.50;97.30;;;;;;4952961;28;20194;-64
2023/08/13 06:32:18;;;;;;;1.20;1.10;;;20.60;97.30;;;;;;4963607;28;20229;-65
2023/08/13 06:34:44;;;;;;;2.00;1.90;;;20.60;97.30;;;;;;4945165;28;20195;-65
2023/08/13 06:37:10;;;;;;;1.30;1.20;;;20.70;97.30;;;;;;4952610;28;20270;-63
2023/08/13 06:39:35;;;;;;;1.10;1.00;;;20.70;97.30;;;;;;4943243;29;20215;-65
2023/08/13 06:42:01;;;;;;;1.23;1.07;;;20.80;97.30;;;;;;4950626;28;20214;-65
2023/08/13 06:44:27;;;;;;;3.57;1.60;;;20.90;97.30;;;;;;4941714;28;20175;-65
2023/08/13 06:46:52;;;;;;;1.00;0.90;;;21.00;97.30;;;;;;4950996;28;20183;-64
2023/08/13 06:49:18;;;;;;;1.20;1.10;;;21.10;97.30;;;;;;4949713;28;20619;-65
2023/08/13 06:51:44;;;;;;;1.47;1.20;;;21.10;97.30;;;;;;4946229;28;20286;-65
2023/08/13 06:54:09;;;;;;;1.00;0.90;;;21.20;97.30;;;;;;4948630;29;20219;-65
2023/08/13 06:56:36;;;;;;;1.00;0.93;;;21.20;97.30;;;;;;4950952;28;20676;-65
2023/08/13 06:59:02;;;;;;;1.93;1.13;;;21.20;97.30;;;;;;4950687;28;20183;-65
2023/08/13 07:01:29;;;;;;;1.67;1.10;;;21.30;97.30;;;;;;4952374;28;20449;-65
2023/08/13 07:03:55;;;;;;;1.20;1.10;;;21.30;97.30;;;;;;4951512;28;20561;-67
2023/08/13 07:06:21;;;;;;;1.10;1.00;;;21.30;97.30;;;;;;4951767;28;20415;-65
2023/08/13 07:08:46;;;;;;;1.00;0.90;;;21.40;97.30;;;;;;4950946;28;20430;-64
2023/08/13 07:11:12;;;;;;;1.77;1.60;;;21.40;97.30;;;;;;4951956;28;20242;-65
2023/08/13 07:13:37;;;;;;;1.97;1.93;;;21.40;97.30;;;;;;4950673;28;20231;-65
2023/08/13 07:16:03;;;;;;;2.23;1.77;;;21.40;97.30;;;;;;4951330;28;20648;-65
2023/08/13 07:18:29;;;;;;;1.00;0.90;;;21.40;97.30;;;;;;4943070;29;20608;-65
2023/08/13 07:20:54;;;;;;;1.00;0.90;;;21.50;97.30;;;;;;4950413;28;20629;-65
2023/08/13 07:23:20;;;;;;;1.20;1.10;;;21.50;97.30;;;;;;4950573;28;20222;-65
2023/08/13 07:25:46;;;;;;;1.63;1.53;;;21.60;97.30;;;;;;4957614;28;20230;-65
2023/08/13 07:28:11;;;;;;;1.00;0.90;;;21.60;97.30;;;;;;4950184;28;20667;-65
2023/08/13 07:30:37;;;;;;;1.00;0.93;;;21.60;97.30;;;;;;4951387;28;20435;-65
2023/08/13 07:33:03;;;;;;;1.00;0.93;;;21.70;97.30;;;;;;4951503;28;20542;-65
2023/08/13 07:35:29;;;;;;;1.10;1.00;;;21.80;97.30;;;;;;4943522;28;20190;-65
2023/08/13 07:37:54;;;;;;;0.80;0.80;;;21.80;97.30;;;;;;4950604;28;20183;-65
2023/08/13 07:40:20;;;;;;;1.13;1.03;;;21.90;97.30;;;;;;4949568;28;20198;-65
2023/08/13 07:42:46;;;;;;;1.03;0.93;;;22.00;97.30;;;;;;4950851;28;20211;-65
2023/08/13 07:45:11;;;;;;;1.07;1.07;;;22.00;97.30;;;;;;4949483;28;20673;-65
2023/08/13 07:47:37;;;;;;;1.47;0.90;;;22.10;97.30;;;;;;4943422;29;20179;-65
2023/08/13 07:50:04;;;;;;;1.50;1.40;;;22.10;97.30;;;;;;4947190;28;20179;-65
2023/08/13 07:52:31;;;;;;;1.50;1.10;;;22.10;97.30;;;;;;4948322;28;20530;-65
2023/08/13 07:54:57;;;;;;;1.30;1.10;;;22.20;97.30;;;;;;4942123;28;20942;-65
2023/08/13 07:57:23;;;;;;;1.00;0.90;;;22.20;97.30;;;;;;4944494;29;20522;-66
2023/08/13 07:59:49;;;;;;;0.83;0.77;;;22.30;97.30;;;;;;4946256;29;20207;-66
2023/08/13 08:02:15;;;;;;;2.80;1.70;;;22.40;97.30;;;;;;4950618;28;20687;-66
2023/08/13 08:04:40;;;;;;;1.20;1.10;;;22.40;97.30;;;;;;4950360;28;20426;-65
2023/08/13 08:07:06;;;;;;;1.77;1.67;;;22.50;97.30;;;;;;4950564;28;20707;-66
2023/08/13 08:09:31;;;;;;;2.03;1.33;;;22.60;97.30;;;;;;4946767;28;20180;-65
2023/08/13 08:11:57;;;;;;;0.90;0.80;;;22.70;97.30;;;;;;4946480;29;20583;-66
2023/08/13 08:14:22;;;;;;;1.50;1.40;;;22.80;97.30;;;;;;4950544;28;20663;-64
2023/08/13 08:16:48;;;;;;;0.90;0.90;;;22.80;97.30;;;;;;4950516;28;20207;-64
2023/08/13 08:19:13;;;;;;;1.20;1.10;;;22.90;97.30;;;;;;4950499;28;20198;-65
2023/08/13 08:21:39;;;;;;;1.20;1.13;;;22.90;97.30;;;;;;4948652;28;20248;-65
2023/08/13 08:24:05;;;;;;;0.90;0.90;;;23.00;97.30;;;;;;4948887;28;20219;-65
2023/08/13 08:26:31;;;;;;;3.73;1.20;;;23.00;97.30;;;;;;4941024;29;20186;-65
2023/08/13 08:28:57;;;;;;;1.03;1.00;;;23.00;97.30;;;;;;4950300;28;20179;-65
2023/08/13 08:31:23;;;;;;;0.90;0.80;;;23.10;97.30;;;;;;4948346;29;20447;-65
2023/08/13 08:33:49;;;;;;;1.90;1.30;;;23.10;97.30;;;;;;4949281;28;20222;-66
2023/08/13 08:36:14;;;;;;;1.10;1.00;;;23.10;97.30;;;;;;4946823;28;20475;-67
2023/08/13 08:38:40;;;;;;;1.10;1.00;;;23.20;97.30;;;;;;4949910;28;20202;-66
2023/08/13 08:41:06;;;;;;;0.90;0.80;;;23.30;97.30;;;;;;4949597;28;20202;-65
2023/08/13 08:43:35;;;;;;;2.10;1.70;;;23.40;97.30;;;;;;4948558;28;20583;-65
2023/08/13 08:46:02;;;;;;;1.93;1.13;;;23.50;97.30;;;;;;4949586;28;20426;-65
2023/08/13 08:48:29;;;;;;;1.17;1.07;;;23.60;97.30;;;;;;4938206;28;20479;-66
2023/08/13 08:50:56;;;;;;;1.03;0.93;;;23.70;97.30;;;;;;4936129;29;20970;-65
2023/08/13 08:53:22;;;;;;;1.50;1.40;;;23.80;97.30;;;;;;4935629;28;20446;-66
2023/08/13 08:55:48;;;;;;;2.70;1.43;;;23.80;97.30;;;;;;4945367;28;20443;-66
2023/08/13 08:58:14;;;;;;;1.23;1.20;;;23.90;97.30;;;;;;4945147;29;20431;-66
2023/08/13 09:00:39;;;;;;;1.00;0.90;;;24.00;97.30;;;;;;4948346;28;20517;-66
2023/08/13 09:03:06;;;;;;;0.90;0.90;;;24.00;97.30;;;;;;4946177;29;20475;-65
2023/08/13 09:05:32;;;;;;;2.60;1.57;;;24.10;97.30;;;;;;4948639;29;20219;-65
2023/08/13 09:07:58;;;;;;;0.93;0.90;;;24.10;97.30;;;;;;4948537;28;20417;-60
2023/08/13 09:10:24;;;;;;;1.13;1.03;;;24.10;97.30;;;;;;4946908;28;20434;-60
2023/08/13 09:12:52;;;;;;;1.83;1.67;;;24.10;97.30;;;;;;4946677;28;20923;-59
2023/08/13 09:15:18;;;;;;;0.80;0.70;;;24.20;97.30;;;;;;4945155;29;20283;-60
2023/08/13 09:17:43;;;;;;;2.30;1.50;;;24.20;97.30;;;;;;4945576;28;21058;-59
2023/08/13 09:20:16;;;;;;;2.50;1.67;;;24.30;97.30;;;;;;4933344;28;20199;-59
2023/08/13 09:22:47;;;;;;;1.00;0.90;;;24.30;97.30;;;;;;4938409;28;20361;-60
2023/08/13 09:25:14;;;;;;;1.10;1.03;;;24.40;97.30;;;;;;4941206;29;20867;-60
2023/08/13 09:27:40;;;;;;;1.87;1.23;;;24.50;97.30;;;;;;4936806;29;20795;-60
2023/08/13 09:30:12;;;;;;;1.63;1.53;;;24.50;97.30;;;;;;4940833;28;20426;-60
2023/08/13 09:32:38;;;;;;;1.43;1.23;;;24.60;97.30;;;;;;4941161;28;20176;-60
2023/08/13 09:35:04;;;;;;;1.30;1.20;;;24.60;97.30;;;;;;4947409;28;20432;-60
2023/08/13 09:37:30;;;;;;;1.07;0.97;;;24.60;97.30;;;;;;4946515;28;20278;-60
2023/08/13 09:39:56;;;;;;;1.03;1.00;;;24.60;97.30;;;;;;4941642;29;20415;-59
2023/08/13 09:42:23;;;;;;;4.80;1.83;;;24.60;97.30;;;;;;4950515;28;20454;-60
2023/08/13 09:44:51;;;;;;;1.40;1.00;;;24.50;97.30;;;;;;4941843;29;20186;-60
2023/08/13 09:47:24;;;;;;;2.50;1.10;;;24.50;97.30;;;;;;4947758;28;20518;-60
2023/08/13 09:49:50;;;;;;;1.10;1.00;;;24.50;97.30;;;;;;4935988;29;20434;-60
2023/08/13 09:52:21;;;;;;;2.10;1.17;;;24.50;97.30;;;;;;4945317;29;20458;-60
2023/08/13 09:54:57;;;;;;;2.00;1.43;;;24.60;97.30;;;;;;4950669;28;20917;-60
2023/08/13 09:57:25;;;;;;;2.20;1.90;;;24.60;97.30;;;;;;4947933;28;20446;-60
2023/08/13 09:59:52;;;;;;;1.23;1.13;;;24.70;97.30;;;;;;4944909;28;20430;-60
2023/08/13 10:02:18;;;;;;;1.13;1.03;;;24.80;97.30;;;;;;4948906;28;20481;-60
2023/08/13 10:04:45;;;;;;;1.00;0.90;;;24.90;97.30;;;;;;4950771;28;20532;-60
2023/08/13 10:07:12;;;;;;;2.23;1.20;;;24.90;97.30;;;;;;4951539;28;20981;-60
2023/08/13 10:09:39;;;;;;;1.20;1.17;;;24.90;97.30;;;;;;4940443;29;20433;-60
2023/08/13 10:12:06;;;;;;;1.27;1.10;;;25.00;97.30;;;;;;4936741;28;20498;-60
2023/08/13 10:14:32;;;;;;;2.87;1.47;;;25.00;97.30;;;;;;4965832;23;20541;-63
2023/08/13 10:17:05;;;;;;;1.10;1.00;;;25.00;97.30;;;;;;4950190;28;20426;-63
2023/08/13 10:19:45;;;;;;;1.13;1.00;;;25.10;97.30;;;;;;4942912;28;20710;-63
2023/08/13 10:22:11;;;;;;;1.47;1.00;;;25.10;97.30;;;;;;4945867;28;20957;-63
2023/08/13 10:24:37;;;;;;;3.03;1.70;;;25.10;97.30;;;;;;4949452;28;20427;-64
2023/08/13 10:27:03;;;;;;;3.47;1.60;;;25.20;97.30;;;;;;4948303;28;20510;-63
2023/08/13 10:29:37;;;;;;;1.20;1.10;;;25.30;97.30;;;;;;4949698;28;20510;-63
2023/08/13 10:32:14;;;;;;;1.53;1.40;;;25.30;96.80;;;;;;4947031;28;20214;-63
2023/08/13 10:34:53;;;;;;;1.23;1.13;;;25.30;96.10;;;;;;4951630;28;20422;-63
2023/08/13 10:37:21;;;;;;;1.63;1.17;;;25.30;95.50;;;;;;4940682;28;20447;-61
2023/08/13 10:40:08;;;;;;;1.00;1.00;;;25.40;95.00;;;;;;4934109;28;20727;-62
2023/08/13 10:42:36;;;;;;;2.70;1.27;;;25.50;95.70;;;;;;4947033;28;20553;-62
2023/08/13 10:45:13;;;;;;;3.37;1.67;;;25.50;95.90;;;;;;4957282;28;20901;-62
2023/08/13 10:47:49;;;;;;;2.00;1.87;;;25.60;95.40;;;;;;4952950;28;20942;-63
2023/08/13 10:50:31;;;;;;;1.63;1.10;;;25.60;95.30;;;;;;4950894;28;20479;-63
2023/08/13 10:53:07;;;;;;;1.10;1.00;;;25.60;94.30;;;;;;4944547;28;20513;-62
2023/08/13 10:55:42;;;;;;;1.00;1.00;;;25.60;94.00;;;;;;4945381;28;20430;-62
2023/08/13 10:58:22;;;;;;;1.10;1.00;;;25.60;93.30;;;;;;4952623;28;20442;-62
2023/08/13 11:00:47;;;;;;;2.93;1.30;;;25.60;94.00;;;;;;4947866;28;20453;-62
2023/08/13 11:03:21;;;;;;;1.03;1.00;;;25.60;94.10;;;;;;4950179;28;20467;-62
2023/08/13 11:05:48;;;;;;;0.90;0.90;;;25.60;93.60;;;;;;4947767;28;20187;-62
2023/08/13 11:08:17;;;;;;;2.30;1.20;;;25.60;94.00;;;;;;4951040;28;20501;-63
2023/08/13 11:10:46;;;;;;;0.80;0.70;;;25.70;94.10;;;;;;4950467;28;20545;-63
2023/08/13 11:13:13;;;;;;;0.90;0.90;;;25.70;94.10;;;;;;4954608;28;20441;-63
2023/08/13 11:15:39;;;;;;;3.80;1.37;;;25.70;93.90;;;;;;4954104;28;20470;-63
2023/08/13 11:18:05;;;;;;;1.23;1.13;;;25.80;93.90;;;;;;4949376;28;20543;-62
2023/08/13 11:20:30;;;;;;;1.37;1.27;;;25.80;94.00;;;;;;4940488;28;20582;-62
2023/08/13 11:22:56;;;;;;;1.10;1.00;;;25.90;94.00;;;;;;4946153;28;20596;-62
2023/08/13 11:25:21;;;;;;;1.00;0.90;;;25.90;91.70;;;;;;4943221;28;20187;-62
2023/08/13 11:27:47;;;;;;;1.57;1.50;;;25.90;92.40;;;;;;4944348;28;20187;-62
2023/08/13 11:30:13;;;;;;;1.53;1.43;;;26.00;92.70;;;;;;4949447;28;20195;-63
2023/08/13 11:32:38;;;;;;;1.10;1.00;;;26.00;92.90;;;;;;4951592;28;20200;-62
2023/08/13 11:35:09;;;;;;;1.07;0.97;;;26.10;93.40;;;;;;4946484;28;20768;-62
2023/08/13 11:37:40;;;;;;;1.37;1.27;;;26.10;93.30;;;;;;4947568;28;20218;-62
2023/08/13 11:40:07;;;;;;;1.20;1.10;;;26.20;93.00;;;;;;4949106;28;20840;-62
2023/08/13 11:42:33;;;;;;;1.20;1.10;;;26.30;93.10;;;;;;4956200;28;20458;-62
2023/08/13 11:44:58;;;;;;;1.00;0.90;;;26.40;92.50;;;;;;4949192;28;20461;-62
2023/08/13 11:47:26;;;;;;;2.30;1.23;;;26.50;92.20;;;;;;4948171;28;20501;-62
2023/08/13 11:49:51;;;;;;;1.27;1.20;;;26.70;92.30;;;;;;4948356;28;20200;-62
2023/08/13 11:52:20;;;;;;;1.10;1.00;;;26.80;92.10;;;;;;4949876;28;20940;-63
2023/08/13 11:54:46;;;;;;;2.50;1.67;;;27.00;92.40;;;;;;4949042;28;20207;-62
2023/08/13 11:57:12;;;;;;;1.13;1.10;;;27.20;92.00;;;;;;4948708;28;20435;-61
2023/08/13 11:59:38;;;;;;;2.67;1.27;;;27.30;88.70;;;;;;4945756;28;20176;-62
2023/08/13 12:02:03;;;;;;;1.13;1.03;;;27.40;89.10;;;;;;4938035;28;20703;-62
2023/08/13 12:04:31;;;;;;;0.90;0.80;;;27.50;90.50;;;;;;4947041;28;20541;-61
2023/08/13 12:06:57;;;;;;;3.50;1.20;;;27.50;89.40;;;;;;4951050;28;20176;-62
2023/08/13 12:09:23;;;;;;;1.10;1.00;;;27.50;89.20;;;;;;4948790;28;21053;-62
2023/08/13 12:11:49;;;;;;;1.07;0.97;;;27.50;88.60;;;;;;4950117;28;20439;-62
2023/08/13 12:14:14;;;;;;;1.17;1.10;;;27.40;89.20;;;;;;4944006;28;20242;-61
2023/08/13 12:16:40;;;;;;;1.00;0.90;;;27.30;89.20;;;;;;4960230;28;20198;-60
2023/08/13 12:19:06;;;;;;;0.87;0.77;;;27.30;89.50;;;;;;4945629;28;20186;-62
2023/08/13 12:21:33;;;;;;;1.43;1.00;;;27.30;89.70;;;;;;4946811;28;20215;-62
2023/08/13 12:23:58;;;;;;;2.60;1.87;;;27.40;88.20;;;;;;4948416;28;21166;-62
2023/08/13 12:26:24;;;;;;;1.00;0.90;;;27.40;88.10;;;;;;4950956;28;20442;-62
2023/08/13 12:28:53;;;;;;;1.03;0.93;;;27.50;88.10;;;;;;4940223;28;20227;-62
2023/08/13 12:31:19;;;;;;;1.47;1.07;;;27.60;89.20;;;;;;4942961;28;20211;-62
2023/08/13 12:33:46;;;;;;;1.43;1.33;;;27.70;88.80;;;;;;4946327;28;20442;-61
2023/08/13 12:36:12;;;;;;;1.07;0.97;;;27.80;87.70;;;;;;4948400;28;20533;-62
2023/08/13 12:38:39;;;;;;;1.00;0.90;;;27.90;87.60;;;;;;4940681;28;20593;-62
2023/08/13 12:41:10;;;;;;;1.70;1.40;;;28.00;86.60;;;;;;4940524;28;20238;-61
2023/08/13 12:43:36;;;;;;;1.20;1.10;;;28.10;86.80;;;;;;4947654;28;20471;-62
2023/08/13 12:46:03;;;;;;;1.03;0.93;;;28.10;87.10;;;;;;4954170;28;20439;-62
2023/08/13 12:48:29;;;;;;;1.27;1.10;;;28.10;87.60;;;;;;4946596;28;20428;-62
2023/08/13 12:50:55;;;;;;;0.90;0.83;;;28.20;87.50;;;;;;4947701;28;20824;-62
2023/08/13 12:53:20;;;;;;;0.80;0.70;;;28.20;86.30;;;;;;4947584;28;20221;-61
2023/08/13 12:55:46;;;;;;;0.93;0.83;;;28.20;87.10;;;;;;4944894;28;20217;-61
2023/08/13 12:58:12;;;;;;;1.00;0.90;;;28.30;86.90;;;;;;4953411;28;20198;-65
2023/08/13 13:00:37;;;;;;;1.50;1.30;;;28.40;87.10;;;;;;4948781;28;20218;-66
2023/08/13 13:03:03;;;;;;;1.10;1.00;;;28.40;85.70;;;;;;4947273;28;20206;-66
2023/08/13 13:05:28;;;;;;;2.40;1.33;;;28.40;84.60;;;;;;4952775;28;20183;-65
2023/08/13 13:07:55;;;;;;;1.10;1.03;;;28.30;85.00;;;;;;4947382;28;20511;-66
2023/08/13 13:10:20;;;;;;;1.47;1.10;;;28.30;86.80;;;;;;4946265;28;20234;-65
2023/08/13 13:12:46;;;;;;;1.00;0.90;;;28.30;87.30;;;;;;4947160;28;20463;-67
2023/08/13 13:15:12;;;;;;;0.90;0.90;;;28.40;87.10;;;;;;4944477;28;20238;-65
2023/08/13 13:17:37;;;;;;;1.70;1.20;;;28.40;87.10;;;;;;4943991;28;20191;-66
2023/08/13 13:20:10;;;;;;;0.80;0.80;;;28.40;87.30;;;;;;4948341;28;20191;-68
2023/08/13 13:22:37;;;;;;;2.30;1.43;;;28.40;87.10;;;;;;4944661;28;20295;-66
2023/08/13 13:25:03;;;;;;;1.20;1.10;;;28.30;86.80;;;;;;4933039;28;20442;-68
2023/08/13 13:27:28;;;;;;;0.90;0.80;;;28.30;87.70;;;;;;4944055;28;20513;-66
2023/08/13 13:29:54;;;;;;;1.00;0.90;;;28.30;87.70;;;;;;4949723;28;20183;-66
2023/08/13 13:32:20;;;;;;;1.53;1.30;;;28.30;87.50;;;;;;4943777;28;20266;-66
2023/08/13 13:34:45;;;;;;;1.00;0.90;;;28.20;85.60;;;;;;4939218;28;20188;-66
2023/08/13 13:37:11;;;;;;;1.83;1.73;;;28.20;86.20;;;;;;4939537;28;20226;-66
2023/08/13 13:39:37;;;;;;;1.00;0.90;;;28.20;86.80;;;;;;4937789;28;20183;-66
2023/08/13 13:42:02;;;;;;;1.60;1.43;;;28.20;85.50;;;;;;4942766;28;20618;-66
2023/08/13 13:44:28;;;;;;;4.13;1.20;;;28.20;86.30;;;;;;4936638;28;20222;-67
2023/08/13 13:46:53;;;;;;;1.23;1.20;;;28.20;87.20;;;;;;4947484;28;20216;-66
2023/08/13 13:49:19;;;;;;;1.10;1.00;;;28.20;86.60;;;;;;4932732;28;20335;-66
2023/08/13 13:51:45;;;;;;;1.00;1.00;;;28.20;87.20;;;;;;4946264;28;20608;-65
2023/08/13 13:54:10;;;;;;;1.13;1.07;;;28.20;85.70;;;;;;4949826;28;20265;-66
2023/08/13 13:56:36;;;;;;;1.47;1.37;;;28.20;84.90;;;;;;4944223;28;20707;-66
2023/08/13 13:59:03;;;;;;;1.57;1.17;;;28.20;85.70;;;;;;4950937;28;20828;-66
2023/08/13 14:01:28;;;;;;;1.27;1.17;;;28.20;85.20;;;;;;4944493;28;20676;-66
2023/08/13 14:03:54;;;;;;;1.13;1.03;;;28.20;86.60;;;;;;4946309;28;20509;-66
2023/08/13 14:06:20;;;;;;;1.10;1.00;;;28.30;87.60;;;;;;4947959;28;20175;-67
2023/08/13 14:08:45;;;;;;;1.60;1.37;;;28.30;88.00;;;;;;4955192;28;20210;-66
2023/08/13 14:11:11;;;;;;;1.10;1.00;;;28.20;87.70;;;;;;4949997;28;20222;-66
2023/08/13 14:13:36;;;;;;;1.87;1.20;;;28.20;87.10;;;;;;4940662;28;20443;-66
2023/08/13 14:16:03;;;;;;;1.10;1.00;;;28.20;89.10;;;;;;4945066;28;20191;-66
2023/08/13 14:18:29;;;;;;;1.30;1.20;;;28.20;87.40;;;;;;4952481;28;20182;-66
2023/08/13 14:20:55;;;;;;;0.90;0.80;;;28.20;87.80;;;;;;4947272;28;20465;-66
2023/08/13 14:23:20;;;;;;;0.90;0.80;;;28.20;87.80;;;;;;4941967;28;20219;-66
2023/08/13 14:25:46;;;;;;;1.10;1.00;;;28.20;88.20;;;;;;4947118;28;20264;-66
2023/08/13 14:28:11;;;;;;;1.37;0.97;;;28.20;87.90;;;;;;4943890;28;20671;-66
2023/08/13 14:30:37;;;;;;;0.80;0.70;;;28.10;88.10;;;;;;4944283;28;20250;-66
2023/08/13 14:33:03;;;;;;;0.97;0.90;;;28.10;88.30;;;;;;4946170;28;20662;-66
2023/08/13 14:35:28;;;;;;;0.93;0.83;;;28.00;89.10;;;;;;4942811;28;20640;-66
2023/08/13 14:37:54;;;;;;;1.13;1.03;;;28.00;88.60;;;;;;4947358;28;20187;-66
2023/08/13 14:40:21;;;;;;;2.60;1.33;;;28.00;88.40;;;;;;4951568;28;20188;-66
2023/08/13 14:42:47;;;;;;;1.20;1.10;;;27.90;88.50;;;;;;4947299;28;20698;-66
2023/08/13 14:45:13;;;;;;;1.40;1.20;;;27.90;88.60;;;;;;4956462;28;20433;-66
2023/08/13 14:47:38;;;;;;;1.10;1.00;;;27.90;87.70;;;;;;4948063;28;20187;-66
2023/08/13 14:50:05;;;;;;;4.47;0.90;;;27.90;88.40;;;;;;4951864;28;20253;-66
2023/08/13 14:52:30;;;;;;;0.90;0.80;;;28.00;88.30;;;;;;4950852;28;20187;-66
2023/08/13 14:54:56;;;;;;;2.50;1.57;;;28.00;89.50;;;;;;4943028;28;20450;-66
2023/08/13 14:57:22;;;;;;;2.30;1.70;;;28.00;88.60;;;;;;4952313;28;20266;-66
2023/08/13 14:59:47;;;;;;;0.90;0.80;;;28.00;89.20;;;;;;4959315;28;20233;-66
2023/08/13 15:02:13;;;;;;;1.20;1.10;;;28.00;89.40;;;;;;4946561;28;20668;-67
2023/08/13 15:04:39;;;;;;;1.00;0.93;;;28.00;89.90;;;;;;4932000;28;20223;-66
2023/08/13 15:07:05;;;;;;;1.17;1.07;;;28.00;89.50;;;;;;4940745;28;20183;-66
2023/08/13 15:09:31;;;;;;;1.80;1.10;;;28.00;89.40;;;;;;4949519;28;20445;-66
2023/08/13 15:11:56;;;;;;;0.87;0.83;;;28.00;90.10;;;;;;4947181;28;20579;-66
2023/08/13 15:14:22;;;;;;;2.07;0.80;;;27.90;88.50;;;;;;4939024;28;20250;-66
2023/08/13 15:16:48;;;;;;;1.63;1.10;;;27.90;89.10;;;;;;4953188;28;20670;-66
2023/08/13 15:19:14;;;;;;;1.57;0.97;;;27.90;89.60;;;;;;4952658;28;20660;-66
2023/08/13 15:21:40;;;;;;;0.90;0.80;;;27.90;90.40;;;;;;4948088;28;20447;-66
2023/08/13 15:24:06;;;;;;;1.20;1.17;;;27.90;89.30;;;;;;4949421;28;20261;-66
2023/08/13 15:26:31;;;;;;;1.33;1.03;;;27.90;90.50;;;;;;4948014;28;20187;-66
2023/08/13 15:28:57;;;;;;;0.90;0.80;;;27.80;90.20;;;;;;4946985;28;20461;-66
2023/08/13 15:31:22;;;;;;;2.37;1.30;;;27.80;88.30;;;;;;4945930;28;20207;-66
2023/08/13 15:33:48;;;;;;;1.87;0.87;;;27.70;88.70;;;;;;4947913;28;20183;-66
2023/08/13 15:36:14;;;;;;;1.67;1.27;;;27.70;87.50;;;;;;4948254;28;20281;-66
2023/08/13 15:38:39;;;;;;;1.10;1.00;;;27.70;88.30;;;;;;4950812;28;20183;-67
2023/08/13 15:41:05;;;;;;;1.90;1.30;;;27.60;88.60;;;;;;4952681;28;20215;-67
2023/08/13 15:43:30;;;;;;;1.67;0.90;;;27.60;89.60;;;;;;4950965;28;21621;-67
2023/08/13 15:45:56;;;;;;;1.20;1.10;;;27.60;89.30;;;;;;4947433;28;20218;-67
2023/08/13 15:48:21;;;;;;;1.73;1.03;;;27.60;88.70;;;;;;4948342;28;20184;-67
2023/08/13 15:50:47;;;;;;;2.60;1.10;;;27.50;87.70;;;;;;4957708;28;20290;-67
2023/08/13 15:53:13;;;;;;;1.83;1.40;;;27.50;87.50;;;;;;4953801;28;20798;-67
2023/08/13 15:55:39;;;;;;;2.30;1.03;;;27.50;88.10;;;;;;4952124;28;20194;-67
2023/08/13 15:58:09;;;;;;;0.93;0.83;;;27.50;88.40;;;;;;4953121;28;20183;-67
2023/08/13 16:00:35;;;;;;;1.10;1.00;;;27.50;87.90;;;;;;4952971;28;20278;-66
2023/08/13 16:03:01;;;;;;;1.00;0.90;;;27.40;86.80;;;;;;4958252;28;20478;-67
2023/08/13 16:05:27;;;;;;;2.40;1.77;;;27.40;87.20;;;;;;4951703;28;20466;-67
2023/08/13 16:07:52;;;;;;;1.23;1.13;;;27.40;87.20;;;;;;4959487;28;20223;-67
2023/08/13 16:10:18;;;;;;;1.10;1.00;;;27.40;87.40;;;;;;4950176;28;20184;-68
2023/08/13 16:12:43;;;;;;;1.30;1.30;;;27.30;86.60;;;;;;4948996;28;20205;-67
2023/08/13 16:15:11;;;;;;;1.00;0.90;;;27.30;87.50;;;;;;4963516;23;20234;-67
2023/08/13 16:17:45;;;;;;;0.90;0.80;;;27.30;87.00;;;;;;4947990;28;20755;-66
2023/08/13 16:20:12;;;;;;;2.50;1.10;;;27.30;87.10;;;;;;4948684;28;20452;-67
2023/08/13 16:22:39;;;;;;;1.87;1.70;;;27.30;86.40;;;;;;4950217;28;20595;-67
2023/08/13 16:25:05;;;;;;;0.90;0.80;;;27.30;85.30;;;;;;4949343;28;20427;-67
2023/08/13 16:27:32;;;;;;;8.90;1.50;;;27.30;85.40;;;;;;4947175;28;20456;-67
2023/08/13 16:29:57;;;;;;;1.13;1.03;;;27.40;86.00;;;;;;4952305;28;20486;-67
2023/08/13 16:32:23;;;;;;;1.20;1.17;;;27.30;86.00;;;;;;4950002;28;20823;-67
2023/08/13 16:34:49;;;;;;;1.37;1.30;;;27.30;86.20;;;;;;4948561;28;20202;-67
2023/08/13 16:37:14;;;;;;;1.40;1.30;;;27.30;85.60;;;;;;4949754;28;20187;-67
2023/08/13 16:39:40;;;;;;;1.23;1.13;;;27.30;85.20;;;;;;4950528;28;20423;-67
2023/08/13 16:42:06;;;;;;;1.90;1.20;;;27.30;85.20;;;;;;4948075;28;20238;-67
2023/08/13 16:44:31;;;;;;;3.23;2.00;;;27.30;84.90;;;;;;4950231;28;20627;-67